Main page
METAR-TAF:

METAR-TAF

Airports :

Oil platform

Ekofisk, Norway

latitude: 56-33N, longitude: 003-15E, elevation: 3 m

Current weather observation

The report was made 26 minutes ago, at 13:20 UTC
Wind 5 kt from variable directions
Temperature 11°C
Humidity 58%
Pressure 993 hPa
Visibility 10 km or more
Few clouds at a height of 2000 ft, Cumulonimbus.

METAR: ENLE 131320Z VRB05KT 9999 FEW020CB SCT0035 11/03 Q0993 W11/S4

Time: 14:46 (13:46 UTC)

Forecast

The report was made 2 hours and 46 minutes ago, at 11:00 UTC
Forecast valid from 13 at 12 UTC to 13 at 21 UTC
Wind 10 kt from the Northwest
Visibility 10 km or more
Few clouds at a height of 2000 ft, Cumulonimbus.
Scattered clouds at a height of 3500 ft
Temporary
from 13 at 12 UTC to 13 at 21 UTC
Broken clouds at a height of 1400 ft
rain showers

TAF: ENLE 131100Z 1312/1321 32010KT 9999 FEW020CB SCT035 TEMPO 1312/1321 SHRA BKN014

Weather observations and forecasts of more than 4000 airports (METAR and TAF reports).

The available stations are represented by yellow and red dots on the map.

Hover mouse over dot to see the name of the station.

Then click to see weather observations and forecasts.

To change the map : click on the green buttons with a black cross to zoom in, on the green button with a dash to zoom out, or on the green arrows for adjacent maps.


METAR-TAF: